sensor_id;sensor_type;location;lat;lon;timestamp;pressure;altitude;pressure_sealevel;temperature;humidity
54854;BME280;40747;49.480;8.658;2023-12-20T00:00:55;100444.91;;;5.64;100.00
54854;BME280;40747;49.480;8.658;2023-12-20T00:03:20;100437.91;;;5.65;100.00
54854;BME280;40747;49.480;8.658;2023-12-20T00:05:46;100427.53;;;5.60;100.00
54854;BME280;40747;49.480;8.658;2023-12-20T00:08:12;100428.34;;;5.62;100.00
54854;BME280;40747;49.480;8.658;2023-12-20T00:10:37;100410.09;;;5.59;100.00
54854;BME280;40747;49.480;8.658;2023-12-20T00:13:03;100416.22;;;5.55;100.00
54854;BME280;40747;49.480;8.658;2023-12-20T00:15:28;100420.56;;;5.59;100.00
54854;BME280;40747;49.480;8.658;2023-12-20T00:17:53;100413.56;;;5.61;100.00
54854;BME280;40747;49.480;8.658;2023-12-20T00:20:18;100415.31;;;5.57;100.00
54854;BME280;40747;49.480;8.658;2023-12-20T00:22:44;100412.69;;;5.61;100.00
54854;BME280;40747;49.480;8.658;2023-12-20T00:25:10;100422.28;;;5.62;100.00
54854;BME280;40747;49.480;8.658;2023-12-20T00:27:36;100417.16;;;5.49;100.00
54854;BME280;40747;49.480;8.658;2023-12-20T00:30:01;100405.78;;;5.53;100.00
54854;BME280;40747;49.480;8.658;2023-12-20T00:32:26;100410.13;;;5.56;100.00
54854;BME280;40747;49.480;8.658;2023-12-20T00:34:51;100414.50;;;5.55;100.00
54854;BME280;40747;49.480;8.658;2023-12-20T00:37:17;100417.03;;;5.63;100.00
54854;BME280;40747;49.480;8.658;2023-12-20T00:39:42;100407.47;;;5.61;100.00
54854;BME280;40747;49.480;8.658;2023-12-20T00:42:07;100411.06;;;5.47;100.00
54854;BME280;40747;49.480;8.658;2023-12-20T00:44:32;100401.44;;;5.51;100.00
54854;BME280;40747;49.480;8.658;2023-12-20T00:46:58;100404.88;;;5.59;100.00
54854;BME280;40747;49.480;8.658;2023-12-20T00:49:23;100408.28;;;5.67;100.00
54854;BME280;40747;49.480;8.658;2023-12-20T00:51:48;100400.47;;;5.64;100.00
54854;BME280;40747;49.480;8.658;2023-12-20T00:54:15;100403.03;;;5.69;100.00
54854;BME280;40747;49.480;8.658;2023-12-20T00:56:41;100399.63;;;5.61;100.00
54854;BME280;40747;49.480;8.658;2023-12-20T00:59:06;100404.03;;;5.52;100.00
54854;BME280;40747;49.480;8.658;2023-12-20T01:01:31;100401.38;;;5.60;100.00
54854;BME280;40747;49.480;8.658;2023-12-20T01:03:58;100402.25;;;5.57;100.00
54854;BME280;40747;49.480;8.658;2023-12-20T01:06:23;100397.88;;;5.61;100.00
54854;BME280;40747;49.480;8.658;2023-12-20T01:08:48;100398.84;;;5.51;100.00
54854;BME280;40747;49.480;8.658;2023-12-20T01:11:14;100391.03;;;5.49;100.00
54854;BME280;40747;49.480;8.658;2023-12-20T01:13:39;100397.03;;;5.59;100.00
54854;BME280;40747;49.480;8.658;2023-12-20T01:16:04;100394.41;;;5.57;100.00
54854;BME280;40747;49.480;8.658;2023-12-20T01:18:30;100391.81;;;5.56;100.00
54854;BME280;40747;49.480;8.658;2023-12-20T01:20:56;100390.09;;;5.56;100.00
54854;BME280;40747;49.480;8.658;2023-12-20T01:23:21;100388.31;;;5.58;100.00
54854;BME280;40747;49.480;8.658;2023-12-20T01:25:46;100386.59;;;5.59;100.00
54854;BME280;40747;49.480;8.658;2023-12-20T01:28:12;100382.25;;;5.58;100.00
54854;BME280;40747;49.480;8.658;2023-12-20T01:30:37;100380.50;;;5.55;100.00
54854;BME280;40747;49.480;8.658;2023-12-20T01:33:02;100387.47;;;5.58;100.00
54854;BME280;40747;49.480;8.658;2023-12-20T01:35:28;100380.56;;;5.51;100.00
54854;BME280;40747;49.480;8.658;2023-12-20T01:37:53;100383.19;;;5.48;100.00
54854;BME280;40747;49.480;8.658;2023-12-20T01:40:22;100382.41;;;5.41;100.00
54854;BME280;40747;49.480;8.658;2023-12-20T01:42:47;100383.19;;;5.49;100.00
54854;BME280;40747;49.480;8.658;2023-12-20T01:45:12;100389.25;;;5.53;100.00
54854;BME280;40747;49.480;8.658;2023-12-20T01:47:38;100389.16;;;5.62;100.00
54854;BME280;40747;49.480;8.658;2023-12-20T01:50:04;100398.72;;;5.65;100.00
54854;BME280;40747;49.480;8.658;2023-12-20T01:52:33;100390.91;;;5.63;100.00
54854;BME280;40747;49.480;8.658;2023-12-20T01:54:59;100396.09;;;5.66;100.00
54854;BME280;40747;49.480;8.658;2023-12-20T01:57:28;100396.00;;;5.74;100.00
54854;BME280;40747;49.480;8.658;2023-12-20T01:59:53;100397.75;;;5.75;100.00
54854;BME280;40747;49.480;8.658;2023-12-20T02:02:19;100353.50;;;5.58;100.00
54854;BME280;40747;49.480;8.658;2023-12-20T02:04:45;100383.81;;;5.76;100.00
54854;BME280;40747;49.480;8.658;2023-12-20T02:07:11;100390.69;;;5.82;100.00
54854;BME280;40747;49.480;8.658;2023-12-20T02:09:36;100384.69;;;5.75;100.00
54854;BME280;40747;49.480;8.658;2023-12-20T02:12:03;100376.00;;;5.71;100.00
54854;BME280;40747;49.480;8.658;2023-12-20T02:14:28;100374.31;;;5.66;100.00
54854;BME280;40747;49.480;8.658;2023-12-20T02:16:54;100386.44;;;5.71;100.00
54854;BME280;40747;49.480;8.658;2023-12-20T02:19:19;100388.19;;;5.72;100.00
54854;BME280;40747;49.480;8.658;2023-12-20T02:21:45;100390.88;;;5.68;100.00
54854;BME280;40747;49.480;8.658;2023-12-20T02:24:10;100383.84;;;5.70;100.00
54854;BME280;40747;49.480;8.658;2023-12-20T02:26:35;100388.19;;;5.72;100.00
54854;BME280;40747;49.480;8.658;2023-12-20T02:29:01;100389.91;;;5.75;100.00
54854;BME280;40747;49.480;8.658;2023-12-20T02:31:27;100355.22;;;5.57;100.00
54854;BME280;40747;49.480;8.658;2023-12-20T02:33:52;100378.59;;;5.71;100.00
54854;BME280;40747;49.480;8.658;2023-12-20T02:36:17;100379.47;;;5.73;100.00
54854;BME280;40747;49.480;8.658;2023-12-20T02:38:43;100375.16;;;5.71;100.00
54854;BME280;40747;49.480;8.658;2023-12-20T02:41:08;100388.16;;;5.74;100.00
54854;BME280;40747;49.480;8.658;2023-12-20T02:43:33;100397.56;;;6.00;100.00
54854;BME280;40747;49.480;8.658;2023-12-20T02:45:58;100405.34;;;6.03;100.00
54854;BME280;40747;49.480;8.658;2023-12-20T02:48:24;100397.53;;;6.01;100.00
54854;BME280;40747;49.480;8.658;2023-12-20T02:50:49;100382.75;;;5.99;100.00
54854;BME280;40747;49.480;8.658;2023-12-20T02:53:14;100374.84;;;6.05;100.00
54854;BME280;40747;49.480;8.658;2023-12-20T02:55:40;100373.06;;;6.05;100.00
54854;BME280;40747;49.480;8.658;2023-12-20T02:58:05;100361.84;;;5.94;100.00
54854;BME280;40747;49.480;8.658;2023-12-20T03:00:30;100372.25;;;6.00;100.00
54854;BME280;40747;49.480;8.658;2023-12-20T03:02:56;100376.59;;;6.03;100.00
54854;BME280;40747;49.480;8.658;2023-12-20T03:05:21;100376.63;;;5.98;100.00
54854;BME280;40747;49.480;8.658;2023-12-20T03:07:46;100392.31;;;5.95;100.00
54854;BME280;40747;49.480;8.658;2023-12-20T03:10:11;100381.84;;;5.98;100.00
54854;BME280;40747;49.480;8.658;2023-12-20T03:12:37;100389.72;;;5.95;100.00
54854;BME280;40747;49.480;8.658;2023-12-20T03:15:02;100382.81;;;5.86;100.00
54854;BME280;40747;49.480;8.658;2023-12-20T03:17:27;100368.03;;;5.84;100.00
54854;BME280;40747;49.480;8.658;2023-12-20T03:19:53;100392.38;;;5.92;100.00
54854;BME280;40747;49.480;8.658;2023-12-20T03:22:18;100383.66;;;5.90;100.00
54854;BME280;40747;49.480;8.658;2023-12-20T03:24:43;100383.75;;;5.82;100.00
54854;BME280;40747;49.480;8.658;2023-12-20T03:27:08;100394.97;;;5.94;100.00
54854;BME280;40747;49.480;8.658;2023-12-20T03:29:34;100405.38;;;6.01;100.00
54854;BME280;40747;49.480;8.658;2023-12-20T03:31:59;100405.44;;;5.94;100.00
54854;BME280;40747;49.480;8.658;2023-12-20T03:34:24;100394.97;;;5.94;100.00
54854;BME280;40747;49.480;8.658;2023-12-20T03:36:49;100389.81;;;5.84;100.00
54854;BME280;40747;49.480;8.658;2023-12-20T03:39:15;100390.69;;;5.82;100.00
54854;BME280;40747;49.480;8.658;2023-12-20T03:41:40;100389.81;;;5.86;100.00
54854;BME280;40747;49.480;8.658;2023-12-20T03:44:05;100384.59;;;5.83;100.00
54854;BME280;40747;49.480;8.658;2023-12-20T03:46:31;100394.22;;;5.79;100.00
54854;BME280;40747;49.480;8.658;2023-12-20T03:48:56;100401.16;;;5.85;100.00
54854;BME280;40747;49.480;8.658;2023-12-20T03:51:22;100364.75;;;5.63;100.00
54854;BME280;40747;49.480;8.658;2023-12-20T03:53:47;100381.09;;;5.85;100.00
54854;BME280;40747;49.480;8.658;2023-12-20T03:56:13;100383.66;;;5.90;100.00
54854;BME280;40747;49.480;8.658;2023-12-20T03:58:38;100373.13;;;5.98;100.00
54854;BME280;40747;49.480;8.658;2023-12-20T04:01:03;100370.53;;;5.96;100.00
54854;BME280;40747;49.480;8.658;2023-12-20T04:03:28;100373.13;;;5.99;100.00
54854;BME280;40747;49.480;8.658;2023-12-20T04:05:54;100380.06;;;6.03;100.00
54854;BME280;40747;49.480;8.658;2023-12-20T04:08:19;100369.75;;;5.86;100.00
54854;BME280;40747;49.480;8.658;2023-12-20T04:10:45;100383.63;;;5.93;100.00
54854;BME280;40747;49.480;8.658;2023-12-20T04:13:10;100394.06;;;5.96;100.00
54854;BME280;40747;49.480;8.658;2023-12-20T04:15:35;100396.66;;;6.01;100.00
54854;BME280;40747;49.480;8.658;2023-12-20T04:18:01;100376.72;;;5.84;100.00
54854;BME280;40747;49.480;8.658;2023-12-20T04:20:26;100385.34;;;5.94;100.00
54854;BME280;40747;49.480;8.658;2023-12-20T04:22:51;100365.53;;;5.74;100.00
54854;BME280;40747;49.480;8.658;2023-12-20T04:25:17;100399.38;;;5.87;100.00
54854;BME280;40747;49.480;8.658;2023-12-20T04:27:42;100405.44;;;5.94;100.00
54854;BME280;40747;49.480;8.658;2023-12-20T04:30:07;100387.25;;;5.81;100.00
54854;BME280;40747;49.480;8.658;2023-12-20T04:32:33;100402.91;;;5.83;100.00
54854;BME280;40747;49.480;8.658;2023-12-20T04:34:58;100402.91;;;5.83;100.00
54854;BME280;40747;49.480;8.658;2023-12-20T04:37:23;100403.84;;;5.77;100.00
54854;BME280;40747;49.480;8.658;2023-12-20T04:39:49;100410.72;;;5.87;100.00
54854;BME280;40747;49.480;8.658;2023-12-20T04:42:15;100424.56;;;5.96;100.00
54854;BME280;40747;49.480;8.658;2023-12-20T04:44:40;100422.03;;;5.88;100.00
54854;BME280;40747;49.480;8.658;2023-12-20T04:47:05;100425.50;;;5.87;100.00
54854;BME280;40747;49.480;8.658;2023-12-20T04:49:30;100428.13;;;5.88;100.00
54854;BME280;40747;49.480;8.658;2023-12-20T04:51:56;100423.81;;;5.86;100.00
54854;BME280;40747;49.480;8.658;2023-12-20T04:54:21;100423.78;;;5.87;100.00
54854;BME280;40747;49.480;8.658;2023-12-20T04:56:46;100432.44;;;5.93;100.00
54854;BME280;40747;49.480;8.658;2023-12-20T04:59:12;100435.94;;;5.90;100.00
54854;BME280;40747;49.480;8.658;2023-12-20T05:01:38;100427.28;;;5.85;100.00
54854;BME280;40747;49.480;8.658;2023-12-20T05:04:04;100440.28;;;5.93;100.00
54854;BME280;40747;49.480;8.658;2023-12-20T05:06:29;100428.13;;;5.87;100.00
54854;BME280;40747;49.480;8.658;2023-12-20T05:08:54;100438.53;;;5.93;100.00
54854;BME280;40747;49.480;8.658;2023-12-20T05:11:20;100442.03;;;5.90;100.00
54854;BME280;40747;49.480;8.658;2023-12-20T05:13:45;100453.44;;;5.85;100.00
54854;BME280;40747;49.480;8.658;2023-12-20T05:16:10;100458.59;;;5.89;100.00
54854;BME280;40747;49.480;8.658;2023-12-20T05:18:36;100456.88;;;5.90;100.00
54854;BME280;40747;49.480;8.658;2023-12-20T05:21:01;100455.13;;;5.89;100.00
54854;BME280;40747;49.480;8.658;2023-12-20T05:23:27;100450.81;;;5.85;100.00
54854;BME280;40747;49.480;8.658;2023-12-20T05:25:52;100448.19;;;5.85;100.00
54854;BME280;40747;49.480;8.658;2023-12-20T05:28:17;100465.66;;;5.81;100.00
54854;BME280;40747;49.480;8.658;2023-12-20T05:30:42;100453.94;;;5.20;100.00
54854;BME280;40747;49.480;8.658;2023-12-20T05:33:08;100470.75;;;4.63;100.00
54854;BME280;40747;49.480;8.658;2023-12-20T05:35:34;100468.22;;;4.38;100.00
54854;BME280;40747;49.480;8.658;2023-12-20T05:37:59;100471.63;;;4.64;100.00
54854;BME280;40747;49.480;8.658;2023-12-20T05:40:24;100475.97;;;4.66;100.00
54854;BME280;40747;49.480;8.658;2023-12-20T05:42:50;100429.09;;;4.32;100.00
54854;BME280;40747;49.480;8.658;2023-12-20T05:45:15;100469.94;;;4.50;100.00
54854;BME280;40747;49.480;8.658;2023-12-20T05:47:40;100482.06;;;4.57;100.00
54854;BME280;40747;49.480;8.658;2023-12-20T05:50:06;100489.84;;;4.73;100.00
54854;BME280;40747;49.480;8.658;2023-12-20T05:52:31;100490.78;;;4.58;100.00
54854;BME280;40747;49.480;8.658;2023-12-20T05:54:57;100507.31;;;4.55;100.00
54854;BME280;40747;49.480;8.658;2023-12-20T05:57:26;100502.03;;;4.72;100.00
54854;BME280;40747;49.480;8.658;2023-12-20T05:59:51;100505.53;;;4.64;100.00
54854;BME280;40747;49.480;8.658;2023-12-20T06:02:16;100511.56;;;4.76;100.00
54854;BME280;40747;49.480;8.658;2023-12-20T06:04:42;100527.25;;;4.80;100.00
54854;BME280;40747;49.480;8.658;2023-12-20T06:07:08;100526.38;;;4.73;100.00
54854;BME280;40747;49.480;8.658;2023-12-20T06:09:33;100534.16;;;4.81;100.00
54854;BME280;40747;49.480;8.658;2023-12-20T06:11:59;100539.44;;;4.59;100.00
54854;BME280;40747;49.480;8.658;2023-12-20T06:14:24;100530.78;;;4.54;100.00
54854;BME280;40747;49.480;8.658;2023-12-20T06:16:49;100538.47;;;4.91;100.00
54854;BME280;40747;49.480;8.658;2023-12-20T06:19:14;100550.53;;;5.23;100.00
54854;BME280;40747;49.480;8.658;2023-12-20T06:21:40;100535.63;;;5.40;100.00
54854;BME280;40747;49.480;8.658;2023-12-20T06:24:05;100537.28;;;5.60;100.00
54854;BME280;40747;49.480;8.658;2023-12-20T06:26:31;100535.38;;;5.78;100.00
54854;BME280;40747;49.480;8.658;2023-12-20T06:28:56;100544.84;;;5.94;100.00
54854;BME280;40747;49.480;8.658;2023-12-20T06:31:21;100537.84;;;5.98;100.00
54854;BME280;40747;49.480;8.658;2023-12-20T06:33:47;100552.56;;;6.11;100.00
54854;BME280;40747;49.480;8.658;2023-12-20T06:36:14;100550.75;;;6.24;100.00
54854;BME280;40747;49.480;8.658;2023-12-20T06:38:40;100555.88;;;6.33;100.00
54854;BME280;40747;49.480;8.658;2023-12-20T06:41:07;100562.75;;;6.44;100.00
54854;BME280;40747;49.480;8.658;2023-12-20T06:43:32;100554.84;;;6.50;100.00
54854;BME280;40747;49.480;8.658;2023-12-20T06:46:00;100540.97;;;6.45;100.00
54854;BME280;40747;49.480;8.658;2023-12-20T06:48:25;100548.88;;;6.35;100.00
54854;BME280;40747;49.480;8.658;2023-12-20T06:50:50;100560.19;;;6.39;100.00
54854;BME280;40747;49.480;8.658;2023-12-20T06:53:16;100547.13;;;6.37;100.00
54854;BME280;40747;49.480;8.658;2023-12-20T06:55:41;100561.06;;;6.39;100.00
54854;BME280;40747;49.480;8.658;2023-12-20T06:58:07;100559.34;;;6.35;100.00
54854;BME280;40747;49.480;8.658;2023-12-20T07:00:32;100561.34;;;6.05;100.00
54854;BME280;40747;49.480;8.658;2023-12-20T07:02:58;100550.06;;;6.00;100.00
54854;BME280;40747;49.480;8.658;2023-12-20T07:05:24;100544.84;;;5.97;100.00
54854;BME280;40747;49.480;8.658;2023-12-20T07:07:49;100535.25;;;5.93;100.00
54854;BME280;40747;49.480;8.658;2023-12-20T07:10:14;100549.16;;;6.03;100.00
54854;BME280;40747;49.480;8.658;2023-12-20T07:12:40;100547.41;;;6.03;100.00
54854;BME280;40747;49.480;8.658;2023-12-20T07:15:05;100545.72;;;6.02;100.00
54854;BME280;40747;49.480;8.658;2023-12-20T07:17:32;100526.63;;;5.82;100.00
54854;BME280;40747;49.480;8.658;2023-12-20T07:19:58;100557.03;;;5.98;100.00
54854;BME280;40747;49.480;8.658;2023-12-20T07:22:23;100547.47;;;5.99;100.00
54854;BME280;40747;49.480;8.658;2023-12-20T07:24:48;100553.56;;;5.93;100.00
54854;BME280;40747;49.480;8.658;2023-12-20T07:27:14;100554.47;;;5.90;100.00
54854;BME280;40747;49.480;8.658;2023-12-20T07:29:40;100556.22;;;5.90;100.00
54854;BME280;40747;49.480;8.658;2023-12-20T07:32:05;100559.75;;;5.86;100.00
54854;BME280;40747;49.480;8.658;2023-12-20T07:34:31;100557.16;;;5.81;100.00
54854;BME280;40747;49.480;8.658;2023-12-20T07:36:56;100562.38;;;5.81;100.00
54854;BME280;40747;49.480;8.658;2023-12-20T07:39:21;100551.94;;;5.80;100.00
54854;BME280;40747;49.480;8.658;2023-12-20T07:41:47;100559.81;;;5.78;100.00
54854;BME280;40747;49.480;8.658;2023-12-20T07:44:12;100562.41;;;5.78;100.00
54854;BME280;40747;49.480;8.658;2023-12-20T07:46:37;100569.34;;;5.79;100.00
54854;BME280;40747;49.480;8.658;2023-12-20T07:49:05;100575.50;;;5.73;100.00
54854;BME280;40747;49.480;8.658;2023-12-20T07:51:30;100589.38;;;5.80;100.00
54854;BME280;40747;49.480;8.658;2023-12-20T07:53:56;100598.09;;;5.84;100.00
54854;BME280;40747;49.480;8.658;2023-12-20T07:56:21;100592.03;;;5.79;100.00
54854;BME280;40747;49.480;8.658;2023-12-20T07:58:46;100577.38;;;5.53;100.00
54854;BME280;40747;49.480;8.658;2023-12-20T08:01:13;100590.41;;;5.56;100.00
54854;BME280;40747;49.480;8.658;2023-12-20T08:03:38;100596.53;;;5.52;100.00
54854;BME280;40747;49.480;8.658;2023-12-20T08:06:04;100595.69;;;5.51;100.00
54854;BME280;40747;49.480;8.658;2023-12-20T08:08:30;100603.41;;;5.70;100.00
54854;BME280;40747;49.480;8.658;2023-12-20T08:10:55;100609.59;;;5.53;100.00
54854;BME280;40747;49.480;8.658;2023-12-20T08:13:22;100590.47;;;5.48;100.00
54854;BME280;40747;49.480;8.658;2023-12-20T08:15:51;100595.66;;;5.54;100.00
54854;BME280;40747;49.480;8.658;2023-12-20T08:18:16;100590.44;;;5.54;100.00
54854;BME280;40747;49.480;8.658;2023-12-20T08:20:41;100603.44;;;5.62;100.00
54854;BME280;40747;49.480;8.658;2023-12-20T08:23:07;100599.09;;;5.61;100.00
54854;BME280;40747;49.480;8.658;2023-12-20T08:25:32;100611.31;;;5.59;100.00
54854;BME280;40747;49.480;8.658;2023-12-20T08:27:57;100603.38;;;5.71;100.00
54854;BME280;40747;49.480;8.658;2023-12-20T08:30:22;100599.06;;;5.67;100.00
54854;BME280;40747;49.480;8.658;2023-12-20T08:32:48;100596.44;;;5.69;100.00
54854;BME280;40747;49.480;8.658;2023-12-20T08:35:14;100600.78;;;5.73;100.00
54854;BME280;40747;49.480;8.658;2023-12-20T08:37:39;100613.81;;;5.81;100.00
54854;BME280;40747;49.480;8.658;2023-12-20T08:40:05;100617.31;;;5.78;100.00
54854;BME280;40747;49.480;8.658;2023-12-20T08:42:30;100613.81;;;5.78;100.00
54854;BME280;40747;49.480;8.658;2023-12-20T08:44:57;100610.34;;;5.76;100.00
54854;BME280;40747;49.480;8.658;2023-12-20T08:47:23;100625.13;;;5.80;100.00
54854;BME280;40747;49.480;8.658;2023-12-20T08:49:49;100622.53;;;5.77;100.00
54854;BME280;40747;49.480;8.658;2023-12-20T08:52:14;100624.28;;;5.74;100.00
54854;BME280;40747;49.480;8.658;2023-12-20T08:54:39;100629.47;;;5.82;100.00
54854;BME280;40747;49.480;8.658;2023-12-20T08:57:04;100621.63;;;5.82;100.00
54854;BME280;40747;49.480;8.658;2023-12-20T08:59:32;100632.94;;;5.86;100.00
54854;BME280;40747;49.480;8.658;2023-12-20T09:01:57;100625.09;;;5.84;100.00
54854;BME280;40747;49.480;8.658;2023-12-20T09:04:22;100619.03;;;5.78;100.00
54854;BME280;40747;49.480;8.658;2023-12-20T09:06:48;100632.88;;;5.98;100.00
54854;BME280;40747;49.480;8.658;2023-12-20T09:09:13;100632.03;;;5.90;100.00
54854;BME280;40747;49.480;8.658;2023-12-20T09:11:41;100627.69;;;5.84;100.00
54854;BME280;40747;49.480;8.658;2023-12-20T09:14:07;100636.38;;;5.89;100.00
54854;BME280;40747;49.480;8.658;2023-12-20T09:16:32;100634.66;;;5.90;100.00
54854;BME280;40747;49.480;8.658;2023-12-20T09:18:57;100645.97;;;5.92;100.00
54854;BME280;40747;49.480;8.658;2023-12-20T09:21:23;100632.09;;;5.82;100.00
54854;BME280;40747;49.480;8.658;2023-12-20T09:23:49;100642.47;;;5.93;100.00
54854;BME280;40747;49.480;8.658;2023-12-20T09:26:14;100643.41;;;5.86;100.00
54854;BME280;40747;49.480;8.658;2023-12-20T09:28:39;100596.50;;;5.58;100.00
54854;BME280;40747;49.480;8.658;2023-12-20T09:31:05;100646.81;;;5.97;100.00
54854;BME280;40747;49.480;8.658;2023-12-20T09:33:31;100646.00;;;5.87;100.00
54854;BME280;40747;49.480;8.658;2023-12-20T09:35:56;100654.69;;;5.99;100.00
54854;BME280;40747;49.480;8.658;2023-12-20T09:38:21;100645.47;;;5.09;100.00
54854;BME280;40747;49.480;8.658;2023-12-20T09:40:47;100645.47;;;5.16;100.00
54854;BME280;40747;49.480;8.658;2023-12-20T09:43:19;100651.56;;;5.10;100.00
54854;BME280;40747;49.480;8.658;2023-12-20T09:45:47;100656.84;;;4.87;100.00
54854;BME280;40747;49.480;8.658;2023-12-20T09:48:13;100661.19;;;4.94;100.00
54854;BME280;40747;49.480;8.658;2023-12-20T09:50:43;100662.06;;;4.84;100.00
54854;BME280;40747;49.480;8.658;2023-12-20T09:53:09;100656.81;;;4.93;100.00
54854;BME280;40747;49.480;8.658;2023-12-20T09:55:37;100647.22;;;5.04;100.00
54854;BME280;40747;49.480;8.658;2023-12-20T09:58:03;100655.09;;;5.01;100.00
54854;BME280;40747;49.480;8.658;2023-12-20T10:00:28;100653.28;;;5.13;100.00
54854;BME280;40747;49.480;8.658;2023-12-20T10:02:58;100650.63;;;5.30;100.00
54854;BME280;40747;49.480;8.658;2023-12-20T10:05:31;100656.78;;;5.12;100.00
54854;BME280;40747;49.480;8.658;2023-12-20T10:07:57;100642.81;;;5.25;100.00
54854;BME280;40747;49.480;8.658;2023-12-20T10:10:23;100649.75;;;5.29;100.00
54854;BME280;40747;49.480;8.658;2023-12-20T10:13:09;100654.09;;;5.32;100.00
54854;BME280;40747;49.480;8.658;2023-12-20T10:15:35;100648.00;;;5.31;100.00
54854;BME280;40747;49.480;8.658;2023-12-20T10:18:02;100649.69;;;5.43;100.00
54854;BME280;40747;49.480;8.658;2023-12-20T10:20:28;100652.38;;;5.29;100.00
54854;BME280;40747;49.480;8.658;2023-12-20T10:22:55;100656.63;;;5.47;100.00
54854;BME280;40747;49.480;8.658;2023-12-20T10:25:21;100645.31;;;5.53;100.00
54854;BME280;40747;49.480;8.658;2023-12-20T10:27:46;100635.72;;;5.52;100.00
54854;BME280;40747;49.480;8.658;2023-12-20T10:30:13;100627.00;;;5.54;100.00
54854;BME280;40747;49.480;8.658;2023-12-20T10:32:39;100633.13;;;5.52;100.00
54854;BME280;40747;49.480;8.658;2023-12-20T10:35:04;100619.94;;;5.69;100.00
54854;BME280;40747;49.480;8.658;2023-12-20T10:37:30;100624.28;;;5.71;100.00
54854;BME280;40747;49.480;8.658;2023-12-20T10:39:55;100636.53;;;5.66;100.00
54854;BME280;40747;49.480;8.658;2023-12-20T10:42:22;100633.09;;;5.58;100.00
54854;BME280;40747;49.480;8.658;2023-12-20T10:44:50;100620.88;;;5.58;100.00
54854;BME280;40747;49.480;8.658;2023-12-20T10:47:17;100622.63;;;5.55;100.00
54854;BME280;40747;49.480;8.658;2023-12-20T10:49:43;100619.13;;;5.62;100.00
54854;BME280;40747;49.480;8.658;2023-12-20T10:52:11;100617.44;;;5.52;100.00
54854;BME280;40747;49.480;8.658;2023-12-20T10:54:38;100615.63;;;5.63;100.00
54854;BME280;40747;49.480;8.658;2023-12-20T10:57:05;100625.19;;;5.67;100.00
54854;BME280;40747;49.480;8.658;2023-12-20T10:59:33;100624.28;;;5.71;100.00
54854;BME280;40747;49.480;8.658;2023-12-20T11:01:59;100622.56;;;5.69;100.00
54854;BME280;40747;49.480;8.658;2023-12-20T11:04:30;100624.28;;;5.76;100.00
54854;BME280;40747;49.480;8.658;2023-12-20T11:07:06;100611.28;;;5.65;100.00
54854;BME280;40747;49.480;8.658;2023-12-20T11:09:36;100611.28;;;5.65;100.00
54854;BME280;40747;49.480;8.658;2023-12-20T11:12:17;100607.84;;;5.57;100.00
54854;BME280;40747;49.480;8.658;2023-12-20T11:14:50;100612.97;;;5.71;100.00
54854;BME280;40747;49.480;8.658;2023-12-20T11:17:16;100585.16;;;5.62;100.00
54854;BME280;40747;49.480;8.658;2023-12-20T11:20:08;100593.84;;;5.67;100.00
54854;BME280;40747;49.480;8.658;2023-12-20T11:22:36;100591.28;;;5.56;100.00
54854;BME280;40747;49.480;8.658;2023-12-20T11:25:07;100587.69;;;5.76;100.00
54854;BME280;40747;49.480;8.658;2023-12-20T11:27:46;100572.22;;;5.44;100.00
54854;BME280;40747;49.480;8.658;2023-12-20T11:30:21;100585.13;;;5.64;100.00
54854;BME280;40747;49.480;8.658;2023-12-20T11:32:46;100560.84;;;5.48;100.00
54854;BME280;40747;49.480;8.658;2023-12-20T11:37:38;100589.44;;;5.72;100.00
54854;BME280;40747;49.480;8.658;2023-12-20T11:40:11;100577.28;;;5.64;100.00
54854;BME280;40747;49.480;8.658;2023-12-20T11:42:41;100584.22;;;5.72;100.00
54854;BME280;40747;49.480;8.658;2023-12-20T11:45:11;100575.53;;;5.70;100.00
54854;BME280;40747;49.480;8.658;2023-12-20T11:47:40;100570.34;;;5.60;100.00
54854;BME280;40747;49.480;8.658;2023-12-20T11:50:05;100574.69;;;5.64;100.00
54854;BME280;40747;49.480;8.658;2023-12-20T11:52:31;100586.97;;;5.54;100.00
54854;BME280;40747;49.480;8.658;2023-12-20T11:54:57;100576.50;;;5.54;100.00
54854;BME280;40747;49.480;8.658;2023-12-20T11:57:22;100581.75;;;5.49;100.00
54854;BME280;40747;49.480;8.658;2023-12-20T11:59:48;100573.00;;;5.58;100.00
54854;BME280;40747;49.480;8.658;2023-12-20T12:02:13;100577.44;;;5.40;100.00
54854;BME280;40747;49.480;8.658;2023-12-20T12:04:41;100576.47;;;5.62;100.00
54854;BME280;40747;49.480;8.658;2023-12-20T12:07:06;100573.88;;;5.57;100.00
54854;BME280;40747;49.480;8.658;2023-12-20T12:09:32;100569.50;;;5.56;100.00
54854;BME280;40747;49.480;8.658;2023-12-20T12:11:58;100566.91;;;5.54;100.00
54854;BME280;40747;49.480;8.658;2023-12-20T12:14:23;100574.66;;;5.68;100.00
54854;BME280;40747;49.480;8.658;2023-12-20T12:16:49;100565.09;;;5.70;100.00
54854;BME280;40747;49.480;8.658;2023-12-20T12:19:22;100574.63;;;5.74;100.00
54854;BME280;40747;49.480;8.658;2023-12-20T12:22:04;100578.16;;;5.67;100.00
54854;BME280;40747;49.480;8.658;2023-12-20T12:24:32;100579.09;;;5.57;100.00
54854;BME280;40747;49.480;8.658;2023-12-20T12:26:58;100575.59;;;5.58;100.00
54854;BME280;40747;49.480;8.658;2023-12-20T12:29:23;100569.53;;;5.54;100.00
54854;BME280;40747;49.480;8.658;2023-12-20T12:31:50;100563.38;;;5.62;100.00
54854;BME280;40747;49.480;8.658;2023-12-20T12:34:15;100579.88;;;5.70;100.00
54854;BME280;40747;49.480;8.658;2023-12-20T12:36:41;100574.66;;;5.73;100.00
54854;BME280;40747;49.480;8.658;2023-12-20T12:39:07;100574.69;;;5.62;100.00
54854;BME280;40747;49.480;8.658;2023-12-20T12:41:32;100573.84;;;5.62;100.00
54854;BME280;40747;49.480;8.658;2023-12-20T12:43:57;100566.03;;;5.55;100.00
54854;BME280;40747;49.480;8.658;2023-12-20T12:46:23;100563.34;;;5.65;100.00